Time;durP1;ratioP1;P1;durP2;ratioP2;P2;SDS_P1;SDS_P2;PMS_P1;PMS_P2;Temp;Humidity;BMP_temperature;BMP_pressure;BME280_temperature;BME280_humidity;BME280_pressure;Samples;Min_cycle;Max_cycle;Signal;HPM_P1;HPM_P2
2024/01/07 00:00:22;;;;;;;;;;;2.50;99.90;;;;;;4939274;29;20393;-88
2024/01/07 00:02:48;;;;;;;;;;;2.50;99.90;;;;;;4956380;28;20009;-87
2024/01/07 00:05:13;;;;;;;;;;;2.50;99.90;;;;;;4947741;28;20637;-87
2024/01/07 00:07:48;;;;;;;;;;;2.40;99.90;;;;;;4944151;28;19914;-88
2024/01/07 00:10:13;;;;;;;;;;;2.50;99.90;;;;;;4939901;29;20436;-88
2024/01/07 00:12:39;;;;;;;;;;;2.50;99.90;;;;;;4939773;29;19911;-88
2024/01/07 00:15:05;;;;;;;;;;;2.50;99.90;;;;;;4957174;28;19907;-88
2024/01/07 00:17:30;;;;;;;;;;;2.50;99.90;;;;;;4938787;29;19918;-87
2024/01/07 00:19:58;;;;;;;;;;;2.50;99.90;;;;;;4960651;28;19934;-87
2024/01/07 00:22:31;;;;;;;;;;;2.40;99.90;;;;;;4943205;29;19910;-88
2024/01/07 00:24:57;;;;;;;;;;;2.50;99.90;;;;;;4940273;28;19914;-87
2024/01/07 00:27:23;;;;;;;;;;;2.50;99.90;;;;;;4965890;28;19919;-87
2024/01/07 00:29:48;;;;;;;;;;;2.50;99.90;;;;;;4958514;28;19915;-88
2024/01/07 00:32:19;;;;;;;;;;;2.40;99.90;;;;;;4959302;28;19953;-87
2024/01/07 00:34:47;;;;;;;;;;;2.40;99.90;;;;;;4962835;28;19914;-88
2024/01/07 00:37:13;;;;;;;;;;;2.50;99.90;;;;;;4937913;29;19961;-87
2024/01/07 00:39:39;;;;;;;;;;;2.40;99.90;;;;;;4949691;28;19915;-88
2024/01/07 00:42:04;;;;;;;;;;;2.50;99.90;;;;;;4945037;28;20278;-88
2024/01/07 00:44:30;;;;;;;;;;;2.40;99.90;;;;;;4968632;28;19945;-86
2024/01/07 00:47:01;;;;;;;;;;;2.50;99.90;;;;;;4940237;28;20271;-87
2024/01/07 00:49:27;;;;;;;;;;;2.50;99.90;;;;;;4937972;29;19925;-88
2024/01/07 00:51:53;;;;;;;;;;;2.50;99.90;;;;;;4934619;29;19979;-87
2024/01/07 00:54:19;;;;;;;;;;;2.50;99.90;;;;;;4938415;29;20382;-88
2024/01/07 00:56:45;;;;;;;;;;;2.50;99.90;;;;;;4938784;29;19922;-88
2024/01/07 00:59:10;;;;;;;;;;;2.50;99.90;;;;;;4951320;28;20009;-88
2024/01/07 01:01:43;;;;;;;;;;;2.50;99.90;;;;;;4950715;28;19914;-87
2024/01/07 01:04:09;;;;;;;;;;;2.50;99.90;;;;;;4948939;28;20324;-87
2024/01/07 01:06:35;;;;;;;;;;;2.50;99.90;;;;;;4945514;28;19915;-86
2024/01/07 01:09:00;;;;;;;;;;;2.50;99.90;;;;;;4970697;28;20012;-87
2024/01/07 01:11:26;;;;;;;;;;;2.50;99.90;;;;;;4938021;28;19949;-88
2024/01/07 01:13:59;;;;;;;;;;;2.50;99.90;;;;;;4940027;28;19914;-88
2024/01/07 01:16:24;;;;;;;;;;;2.50;99.90;;;;;;4959447;28;19985;-87
2024/01/07 01:18:50;;;;;;;;;;;2.60;99.90;;;;;;4945957;28;19976;-88
2024/01/07 01:21:16;;;;;;;;;;;2.50;99.90;;;;;;4969211;28;19926;-86
2024/01/07 01:23:41;;;;;;;;;;;2.50;99.90;;;;;;4940009;29;20381;-87
2024/01/07 01:26:07;;;;;;;;;;;2.50;99.90;;;;;;4978642;28;19914;-90
2024/01/07 01:28:35;;;;;;;;;;;2.50;99.90;;;;;;4928601;29;19919;-88
2024/01/07 01:31:01;;;;;;;;;;;2.50;99.90;;;;;;4946893;28;19926;-89
2024/01/07 01:33:26;;;;;;;;;;;2.50;99.90;;;;;;4958527;28;19961;-89
2024/01/07 01:35:52;;;;;;;;;;;2.40;99.90;;;;;;4966538;28;19918;-87
2024/01/07 01:38:17;;;;;;;;;;;2.40;99.90;;;;;;4936326;29;19915;-89
2024/01/07 01:40:43;;;;;;;;;;;2.40;99.90;;;;;;4936731;29;19957;-88
2024/01/07 01:43:16;;;;;;;;;;;2.40;99.90;;;;;;4944303;29;19918;-89
2024/01/07 01:45:42;;;;;;;;;;;2.40;99.90;;;;;;4928671;28;19953;-88
2024/01/07 01:48:07;;;;;;;;;;;2.50;99.90;;;;;;4943866;28;19957;-89
2024/01/07 01:50:33;;;;;;;;;;;2.50;99.90;;;;;;4958596;28;19918;-88
2024/01/07 01:52:59;;;;;;;;;;;2.50;99.90;;;;;;4964961;28;20404;-91
2024/01/07 01:55:25;;;;;;;;;;;2.50;99.90;;;;;;4936202;29;20709;-89
2024/01/07 01:57:59;;;;;;;;;;;2.40;99.90;;;;;;4942448;28;19929;-87
2024/01/07 02:00:25;;;;;;;;;;;2.30;99.90;;;;;;4960017;28;20219;-88
2024/01/07 02:02:51;;;;;;;;;;;2.20;99.90;;;;;;4944087;28;20412;-90
2024/01/07 02:05:16;;;;;;;;;;;2.30;99.90;;;;;;4941805;28;19940;-89
2024/01/07 02:07:42;;;;;;;;;;;2.20;99.90;;;;;;4939940;29;19914;-89
2024/01/07 02:10:15;;;;;;;;;;;2.20;99.90;;;;;;4924318;29;20531;-88
2024/01/07 02:12:41;;;;;;;;;;;2.20;99.90;;;;;;4930397;28;20304;-89
2024/01/07 02:15:07;;;;;;;;;;;2.30;99.90;;;;;;4940216;28;20037;-89
2024/01/07 02:17:33;;;;;;;;;;;2.30;99.90;;;;;;4937656;29;20024;-87
2024/01/07 02:19:58;;;;;;;;;;;2.30;99.90;;;;;;4950042;28;19958;-88
2024/01/07 02:22:24;;;;;;;;;;;2.30;99.90;;;;;;4959288;28;20416;-88
2024/01/07 02:24:58;;;;;;;;;;;2.40;99.90;;;;;;4950175;28;19918;-88
2024/01/07 02:27:23;;;;;;;;;;;2.40;99.90;;;;;;4947766;29;19997;-89
2024/01/07 02:29:49;;;;;;;;;;;2.40;99.90;;;;;;4961179;28;20187;-90
2024/01/07 02:32:14;;;;;;;;;;;2.40;99.90;;;;;;4953635;28;19918;-88
2024/01/07 02:34:40;;;;;;;;;;;2.40;99.90;;;;;;4967527;28;20166;-89
2024/01/07 02:37:13;;;;;;;;;;;2.40;99.90;;;;;;4923580;28;19921;-89
2024/01/07 02:39:39;;;;;;;;;;;2.40;99.90;;;;;;4939219;29;20008;-89
2024/01/07 02:42:05;;;;;;;;;;;2.40;99.90;;;;;;4950295;28;20557;-89
2024/01/07 02:44:30;;;;;;;;;;;2.40;99.90;;;;;;4949892;28;19919;-89
2024/01/07 02:46:56;;;;;;;;;;;2.30;99.90;;;;;;4949598;28;19918;-89
2024/01/07 02:49:29;;;;;;;;;;;2.30;99.90;;;;;;4939937;29;19911;-88
2024/01/07 02:51:54;;;;;;;;;;;2.40;99.90;;;;;;4936752;28;19969;-89
2024/01/07 02:54:20;;;;;;;;;;;2.30;99.90;;;;;;4943598;28;19965;-90
2024/01/07 02:56:46;;;;;;;;;;;2.40;99.90;;;;;;4943561;28;19926;-90
2024/01/07 02:59:11;;;;;;;;;;;2.40;99.90;;;;;;4942085;28;20761;-89
2024/01/07 03:01:40;;;;;;;;;;;2.40;99.90;;;;;;4940796;29;19973;-89
2024/01/07 03:04:10;;;;;;;;;;;2.40;99.90;;;;;;4950596;28;20361;-89
2024/01/07 03:06:35;;;;;;;;;;;2.40;99.90;;;;;;4962291;28;19918;-89
2024/01/07 03:09:01;;;;;;;;;;;2.40;99.90;;;;;;4950959;28;19918;-89
2024/01/07 03:11:26;;;;;;;;;;;2.40;99.90;;;;;;4951179;28;19954;-89
2024/01/07 03:13:52;;;;;;;;;;;2.40;99.90;;;;;;4940736;29;19911;-89
2024/01/07 03:16:31;;;;;;;;;;;2.40;99.90;;;;;;4937798;28;19914;-89
2024/01/07 03:18:57;;;;;;;;;;;2.40;99.90;;;;;;4965551;28;19918;-89
2024/01/07 03:21:23;;;;;;;;;;;2.40;99.90;;;;;;4954346;28;19977;-90
2024/01/07 03:23:49;;;;;;;;;;;2.40;99.90;;;;;;4954067;28;19922;-87
2024/01/07 03:26:15;;;;;;;;;;;2.40;99.90;;;;;;4962658;28;19942;-91
2024/01/07 03:28:41;;;;;;;;;;;2.30;99.90;;;;;;4939022;29;19970;-89
2024/01/07 03:31:14;;;;;;;;;;;2.40;99.90;;;;;;4953782;28;20364;-89
2024/01/07 03:33:40;;;;;;;;;;;2.40;99.90;;;;;;4942987;28;19918;-88
2024/01/07 03:36:12;;;;;;;;;;;2.40;99.90;;;;;;4960114;28;19917;-88
2024/01/07 03:38:41;;;;;;;;;;;2.40;99.90;;;;;;4966501;28;19956;-89
2024/01/07 03:41:06;;;;;;;;;;;2.40;99.90;;;;;;4957623;28;19949;-88
2024/01/07 03:43:32;;;;;;;;;;;2.40;99.90;;;;;;4949159;28;19956;-88
2024/01/07 03:45:58;;;;;;;;;;;2.40;99.90;;;;;;4955645;28;19918;-88
2024/01/07 03:48:24;;;;;;;;;;;2.40;99.90;;;;;;4941960;29;19919;-88
2024/01/07 03:50:49;;;;;;;;;;;2.40;99.90;;;;;;4954208;28;20285;-88
2024/01/07 03:53:23;;;;;;;;;;;2.40;99.90;;;;;;4941005;28;20304;-88
2024/01/07 03:55:49;;;;;;;;;;;2.30;99.90;;;;;;4958789;28;20461;-89
2024/01/07 03:58:14;;;;;;;;;;;2.40;99.90;;;;;;4942816;28;19964;-89
2024/01/07 04:00:40;;;;;;;;;;;2.40;99.90;;;;;;4940943;28;19914;-88
2024/01/07 04:03:05;;;;;;;;;;;2.40;99.90;;;;;;4955282;28;20420;-88
2024/01/07 04:05:33;;;;;;;;;;;2.50;99.90;;;;;;4951868;28;19961;-89
2024/01/07 04:08:05;;;;;;;;;;;2.50;99.90;;;;;;4955625;28;19918;-88
2024/01/07 04:10:31;;;;;;;;;;;2.50;99.90;;;;;;4947587;28;19922;-88
2024/01/07 04:12:57;;;;;;;;;;;2.50;99.90;;;;;;4951373;28;19937;-88
2024/01/07 04:15:23;;;;;;;;;;;2.50;99.90;;;;;;4933720;29;19915;-87
2024/01/07 04:17:48;;;;;;;;;;;2.50;99.90;;;;;;4942176;29;20066;-88
2024/01/07 04:20:14;;;;;;;;;;;2.50;99.90;;;;;;4950138;28;19918;-88
2024/01/07 04:22:42;;;;;;;;;;;2.50;99.90;;;;;;4969057;28;19925;-89
2024/01/07 04:25:08;;;;;;;;;;;2.50;99.90;;;;;;4946637;28;19925;-88
2024/01/07 04:27:34;;;;;;;;;;;2.50;99.90;;;;;;4951023;29;19922;-88
2024/01/07 04:30:00;;;;;;;;;;;2.50;99.90;;;;;;4958811;28;19923;-88
2024/01/07 04:32:26;;;;;;;;;;;2.50;99.90;;;;;;4964498;28;19914;-89
2024/01/07 04:34:54;;;;;;;;;;;2.50;99.90;;;;;;4939832;28;19950;-89
2024/01/07 04:37:23;;;;;;;;;;;2.40;99.90;;;;;;4942438;28;19997;-89
2024/01/07 04:39:49;;;;;;;;;;;2.50;99.90;;;;;;4958903;28;19993;-89
2024/01/07 04:42:15;;;;;;;;;;;2.50;99.90;;;;;;4940618;28;19910;-89
2024/01/07 04:44:40;;;;;;;;;;;2.50;99.90;;;;;;4964190;28;20132;-88
2024/01/07 04:47:22;;;;;;;;;;;2.50;99.90;;;;;;4932615;28;19926;-89
2024/01/07 04:49:47;;;;;;;;;;;2.50;99.90;;;;;;4965417;28;19917;-89
2024/01/07 04:52:13;;;;;;;;;;;2.50;99.90;;;;;;4937957;28;20323;-91
2024/01/07 04:54:38;;;;;;;;;;;2.50;99.90;;;;;;4943798;29;20441;-88
2024/01/07 04:57:04;;;;;;;;;;;2.50;99.90;;;;;;4950557;28;19918;-89
2024/01/07 04:59:30;;;;;;;;;;;2.60;99.90;;;;;;4947992;28;19968;-88
2024/01/07 05:01:58;;;;;;;;;;;2.50;99.90;;;;;;4951187;28;19970;-90
2024/01/07 05:04:24;;;;;;;;;;;2.60;99.90;;;;;;4949061;28;19918;-88
2024/01/07 05:06:50;;;;;;;;;;;2.60;99.90;;;;;;4936913;29;20013;-89
2024/01/07 05:09:15;;;;;;;;;;;2.60;99.90;;;;;;4944239;29;19914;-90
2024/01/07 05:11:41;;;;;;;;;;;2.60;99.90;;;;;;4937503;29;19961;-89
2024/01/07 05:14:06;;;;;;;;;;;2.60;99.90;;;;;;4923979;28;19914;-89
2024/01/07 05:16:34;;;;;;;;;;;2.50;99.90;;;;;;4955226;28;19914;-89
2024/01/07 05:19:00;;;;;;;;;;;2.60;99.90;;;;;;4947538;28;19953;-90
2024/01/07 05:21:26;;;;;;;;;;;2.60;99.90;;;;;;4950195;28;19997;-89
2024/01/07 05:23:51;;;;;;;;;;;2.60;99.90;;;;;;4943879;28;20396;-88
2024/01/07 05:26:17;;;;;;;;;;;2.70;99.90;;;;;;4962954;28;20385;-88
2024/01/07 05:28:43;;;;;;;;;;;2.60;99.90;;;;;;4948255;28;19914;-90
2024/01/07 05:31:18;;;;;;;;;;;2.60;99.90;;;;;;4949452;28;19918;-88
2024/01/07 05:33:44;;;;;;;;;;;2.60;99.90;;;;;;4932565;29;20388;-89
2024/01/07 05:36:10;;;;;;;;;;;2.60;99.90;;;;;;4945265;28;19922;-90
2024/01/07 05:38:35;;;;;;;;;;;2.60;99.90;;;;;;4971914;28;19925;-88
2024/01/07 05:41:01;;;;;;;;;;;2.50;99.90;;;;;;4956961;28;19929;-88
2024/01/07 05:43:29;;;;;;;;;;;2.50;99.90;;;;;;4941476;28;19915;-88
2024/01/07 05:45:55;;;;;;;;;;;2.50;99.90;;;;;;4949357;28;19950;-89
2024/01/07 05:48:23;;;;;;;;;;;2.50;99.90;;;;;;4972168;28;20377;-88
2024/01/07 05:50:49;;;;;;;;;;;2.60;99.90;;;;;;4945394;28;19926;-89
2024/01/07 05:53:16;;;;;;;;;;;2.50;99.90;;;;;;4945048;28;19972;-88
2024/01/07 05:55:41;;;;;;;;;;;2.50;99.90;;;;;;4947480;28;19922;-88
2024/01/07 05:58:09;;;;;;;;;;;2.50;99.90;;;;;;4929845;28;19914;-88
2024/01/07 06:00:35;;;;;;;;;;;2.60;99.90;;;;;;4963441;28;19957;-90
2024/01/07 06:03:00;;;;;;;;;;;2.60;99.90;;;;;;4922275;29;19961;-90
2024/01/07 06:05:26;;;;;;;;;;;2.50;99.90;;;;;;4936589;28;19915;-89
2024/01/07 06:07:51;;;;;;;;;;;2.50;99.90;;;;;;4948726;28;19977;-88
2024/01/07 06:10:17;;;;;;;;;;;2.50;99.90;;;;;;4946874;28;20389;-89
2024/01/07 06:12:45;;;;;;;;;;;2.50;99.90;;;;;;4971579;28;20619;-88
2024/01/07 06:15:13;;;;;;;;;;;2.50;99.90;;;;;;4961826;28;19915;-88
2024/01/07 06:17:38;;;;;;;;;;;2.50;99.90;;;;;;4933347;29;19911;-89
2024/01/07 06:20:05;;;;;;;;;;;2.40;99.90;;;;;;4934389;28;19958;-91
2024/01/07 06:22:31;;;;;;;;;;;2.50;99.90;;;;;;4959447;23;19931;-89
2024/01/07 06:24:56;;;;;;;;;;;2.40;99.90;;;;;;4947567;29;20285;-88
2024/01/07 06:27:29;;;;;;;;;;;2.40;99.90;;;;;;4924862;28;19914;-88
2024/01/07 06:29:55;;;;;;;;;;;2.40;99.90;;;;;;4949618;29;19929;-88
2024/01/07 06:32:21;;;;;;;;;;;2.30;99.90;;;;;;4944016;28;20669;-88
2024/01/07 06:34:47;;;;;;;;;;;2.30;99.90;;;;;;4962942;28;19918;-89
2024/01/07 06:37:12;;;;;;;;;;;2.30;99.90;;;;;;4970670;28;19914;-90
2024/01/07 06:39:38;;;;;;;;;;;2.30;99.90;;;;;;4940147;28;19938;-89
2024/01/07 06:42:12;;;;;;;;;;;2.30;99.90;;;;;;4920146;29;19958;-89
2024/01/07 06:44:38;;;;;;;;;;;2.30;99.90;;;;;;4955802;28;20281;-89
2024/01/07 06:47:03;;;;;;;;;;;2.20;99.90;;;;;;4936760;28;20001;-89
2024/01/07 06:49:29;;;;;;;;;;;2.20;99.90;;;;;;4954368;28;20288;-88
2024/01/07 06:51:54;;;;;;;;;;;2.30;99.90;;;;;;4944736;28;19926;-88
2024/01/07 06:54:20;;;;;;;;;;;2.20;99.90;;;;;;4954098;28;19918;-88
2024/01/07 06:56:48;;;;;;;;;;;2.20;99.90;;;;;;4930034;29;19918;-88
2024/01/07 06:59:14;;;;;;;;;;;2.20;99.90;;;;;;4962834;28;20009;-88
2024/01/07 07:01:40;;;;;;;;;;;2.10;99.90;;;;;;4952811;28;19937;-89
2024/01/07 07:04:05;;;;;;;;;;;2.10;99.90;;;;;;4949871;28;19922;-87
2024/01/07 07:06:31;;;;;;;;;;;2.10;99.90;;;;;;4960434;28;19918;-90
2024/01/07 07:08:56;;;;;;;;;;;2.10;99.90;;;;;;4951378;28;19925;-88
2024/01/07 07:11:24;;;;;;;;;;;2.10;99.90;;;;;;4963735;28;20313;-89
2024/01/07 07:14:10;;;;;;;;;;;2.10;99.90;;;;;;4963481;28;20005;-88
2024/01/07 07:16:41;;;;;;;;;;;2.00;99.90;;;;;;4929342;29;19929;-88
2024/01/07 07:19:14;;;;;;;;;;;2.00;99.90;;;;;;4931711;28;19919;-89
2024/01/07 07:21:40;;;;;;;;;;;2.00;99.90;;;;;;4958241;28;20009;-91
2024/01/07 07:24:06;;;;;;;;;;;1.90;99.90;;;;;;4962704;28;19903;-90
2024/01/07 07:26:31;;;;;;;;;;;1.90;99.90;;;;;;4957116;29;19942;-88
2024/01/07 07:29:03;;;;;;;;;;;1.90;99.90;;;;;;4962927;28;20436;-88
2024/01/07 07:31:29;;;;;;;;;;;1.80;99.90;;;;;;4958693;28;19933;-90
2024/01/07 07:33:54;;;;;;;;;;;1.80;99.90;;;;;;4956281;28;20017;-89
2024/01/07 07:36:20;;;;;;;;;;;1.80;99.90;;;;;;4951151;28;19925;-92
2024/01/07 07:38:45;;;;;;;;;;;1.70;99.90;;;;;;4955365;29;19918;-91
2024/01/07 07:41:20;;;;;;;;;;;1.80;99.90;;;;;;4962538;28;19994;-88
2024/01/07 07:43:46;;;;;;;;;;;1.70;99.90;;;;;;4931803;28;19918;-89
2024/01/07 07:46:11;;;;;;;;;;;1.60;99.90;;;;;;4934764;29;19925;-88
2024/01/07 07:48:37;;;;;;;;;;;1.60;99.90;;;;;;4930969;29;20742;-89
2024/01/07 07:51:03;;;;;;;;;;;1.70;99.90;;;;;;4932810;28;19915;-88
2024/01/07 07:53:28;;;;;;;;;;;1.60;99.90;;;;;;4948040;28;19969;-89
2024/01/07 07:55:56;;;;;;;;;;;1.60;99.90;;;;;;4927366;29;20394;-89
2024/01/07 07:58:22;;;;;;;;;;;1.60;99.90;;;;;;4939688;28;19914;-90
2024/01/07 08:00:48;;;;;;;;;;;1.60;99.90;;;;;;4949021;28;20374;-89
2024/01/07 08:03:13;;;;;;;;;;;1.60;99.90;;;;;;4948781;28;19915;-89
2024/01/07 08:05:41;;;;;;;;;;;1.60;99.90;;;;;;4940998;28;19915;-90
2024/01/07 08:08:07;;;;;;;;;;;1.60;99.90;;;;;;4928704;29;20394;-87
2024/01/07 08:13:55;;;;;;;;;;;1.60;99.90;;;;;;4932365;29;19979;-89
2024/01/07 08:16:32;;;;;;;;;;;1.60;99.90;;;;;;4914526;29;19918;-88
2024/01/07 08:18:58;;;;;;;;;;;1.70;99.90;;;;;;4921263;29;19925;-90
2024/01/07 08:21:24;;;;;;;;;;;1.70;99.90;;;;;;4925408;29;19950;-89
2024/01/07 08:23:50;;;;;;;;;;;1.70;99.90;;;;;;4921712;29;20011;-89
2024/01/07 08:26:19;;;;;;;;;;;1.60;99.90;;;;;;4919022;29;19932;-89
2024/01/07 08:28:45;;;;;;;;;;;1.60;99.90;;;;;;4905194;29;19915;-89
2024/01/07 08:31:11;;;;;;;;;;;1.60;99.90;;;;;;4901749;29;19989;-89
2024/01/07 08:33:36;;;;;;;;;;;1.60;99.90;;;;;;4929749;29;19925;-89
2024/01/07 08:36:02;;;;;;;;;;;1.60;99.90;;;;;;4929510;29;19918;-89
2024/01/07 08:38:28;;;;;;;;;;;1.60;99.90;;;;;;4912371;29;20462;-88
2024/01/07 08:40:53;;;;;;;;;;;1.60;99.90;;;;;;4939485;29;19915;-89
2024/01/07 08:43:19;;;;;;;;;;;1.60;99.90;;;;;;4936757;29;19919;-89
2024/01/07 08:45:45;;;;;;;;;;;1.60;99.90;;;;;;4921020;29;20332;-88
2024/01/07 08:48:12;;;;;;;;;;;1.50;99.90;;;;;;4918937;29;19943;-88
2024/01/07 08:50:38;;;;;;;;;;;1.50;99.90;;;;;;4916677;29;19925;-89
2024/01/07 08:53:04;;;;;;;;;;;1.60;99.90;;;;;;4911980;29;19915;-89
2024/01/07 08:55:30;;;;;;;;;;;1.60;99.90;;;;;;4913175;29;19925;-89
2024/01/07 08:57:56;;;;;;;;;;;1.50;99.90;;;;;;4903555;29;19919;-88
2024/01/07 09:00:25;;;;;;;;;;;1.50;99.90;;;;;;4920953;29;19923;-89
2024/01/07 09:02:51;;;;;;;;;;;1.60;99.90;;;;;;4928136;29;20354;-89
2024/01/07 09:05:17;;;;;;;;;;;1.60;99.90;;;;;;4912124;29;19915;-89
2024/01/07 09:07:42;;;;;;;;;;;1.60;99.90;;;;;;4927062;29;20005;-88
2024/01/07 09:10:10;;;;;;;;;;;1.50;99.90;;;;;;4917434;29;19919;-88
2024/01/07 09:12:37;;;;;;;;;;;1.40;99.90;;;;;;4938275;28;19962;-88
2024/01/07 09:15:04;;;;;;;;;;;1.40;99.90;;;;;;4914199;29;19914;-88
2024/01/07 09:17:29;;;;;;;;;;;1.40;99.90;;;;;;4905075;29;19970;-88
2024/01/07 09:19:55;;;;;;;;;;;1.40;99.90;;;;;;4905635;29;20291;-87
2024/01/07 09:22:21;;;;;;;;;;;1.40;99.90;;;;;;4920449;29;19926;-88
2024/01/07 09:24:47;;;;;;;;;;;1.30;99.90;;;;;;4927396;29;19922;-89
2024/01/07 09:27:18;;;;;;;;;;;1.20;99.90;;;;;;4921980;29;20294;-89
2024/01/07 09:29:44;;;;;;;;;;;1.20;99.90;;;;;;4918786;29;19923;-88
2024/01/07 09:32:10;;;;;;;;;;;1.30;99.90;;;;;;4919990;29;20301;-89
2024/01/07 09:34:35;;;;;;;;;;;1.40;99.90;;;;;;4903522;29;20033;-88
2024/01/07 09:37:04;;;;;;;;;;;1.40;99.90;;;;;;4919006;29;19970;-89
2024/01/07 09:39:29;;;;;;;;;;;1.40;99.90;;;;;;4906466;29;20673;-88
2024/01/07 09:41:55;;;;;;;;;;;1.30;99.90;;;;;;4918728;29;19966;-88
2024/01/07 09:47:49;;;;;;;;;;;1.30;99.90;;;;;;4934718;29;20109;-88
2024/01/07 09:50:16;;;;;;;;;;;1.40;99.90;;;;;;4917423;29;19930;-87
2024/01/07 09:52:45;;;;;;;;;;;1.60;99.90;;;;;;4902195;29;20390;-88
2024/01/07 09:55:15;;;;;;;;;;;1.70;99.90;;;;;;4902550;29;20062;-88
2024/01/07 09:57:41;;;;;;;;;;;1.70;99.90;;;;;;4923162;29;19925;-88
2024/01/07 10:00:07;;;;;;;;;;;1.60;99.90;;;;;;4918375;29;20688;-87
2024/01/07 10:02:40;;;;;;;;;;;1.70;99.90;;;;;;4918996;29;19915;-88
2024/01/07 10:05:21;;;;;;;;;;;1.70;99.90;;;;;;4912440;29;20613;-87
2024/01/07 10:07:47;;;;;;;;;;;1.60;99.90;;;;;;4929153;29;19915;-89
2024/01/07 10:10:13;;;;;;;;;;;1.60;99.90;;;;;;4918324;29;19917;-88
2024/01/07 10:12:39;;;;;;;;;;;1.60;99.90;;;;;;4917898;29;19919;-88
2024/01/07 10:15:05;;;;;;;;;;;1.70;99.90;;;;;;4902309;29;19922;-88
2024/01/07 10:17:31;;;;;;;;;;;1.80;99.90;;;;;;4918454;29;20014;-87
2024/01/07 10:19:57;;;;;;;;;;;1.90;99.90;;;;;;4918716;29;19962;-88
2024/01/07 10:22:22;;;;;;;;;;;1.80;99.90;;;;;;4917636;29;20281;-89
2024/01/07 10:24:51;;;;;;;;;;;1.90;99.90;;;;;;4918262;29;19970;-88
2024/01/07 10:27:16;;;;;;;;;;;1.90;99.90;;;;;;4917958;29;19919;-88
2024/01/07 10:29:42;;;;;;;;;;;1.80;99.90;;;;;;4902352;29;20422;-89
2024/01/07 10:32:08;;;;;;;;;;;1.70;99.90;;;;;;4923706;29;20066;-87
2024/01/07 10:34:34;;;;;;;;;;;1.70;99.90;;;;;;4936611;29;19922;-87
2024/01/07 10:37:00;;;;;;;;;;;1.60;99.90;;;;;;4910943;29;19966;-89
2024/01/07 10:39:27;;;;;;;;;;;1.60;99.90;;;;;;4922363;29;19914;-88
2024/01/07 10:41:57;;;;;;;;;;;1.60;99.90;;;;;;4936553;28;19954;-89
2024/01/07 10:44:23;;;;;;;;;;;1.60;99.90;;;;;;4927439;29;19938;-89
2024/01/07 10:46:49;;;;;;;;;;;1.60;99.90;;;;;;4930791;29;20379;-88
2024/01/07 10:49:25;;;;;;;;;;;1.60;99.90;;;;;;4946859;29;19973;-88
2024/01/07 10:52:07;;;;;;;;;;;1.50;99.90;;;;;;4926722;29;19969;-89
2024/01/07 10:54:34;;;;;;;;;;;1.50;99.90;;;;;;4930282;29;20712;-88
2024/01/07 10:57:07;;;;;;;;;;;1.40;99.90;;;;;;4941944;29;19914;-89
2024/01/07 10:59:33;;;;;;;;;;;1.30;99.90;;;;;;4919305;29;19915;-88
2024/01/07 11:02:33;;;;;;;;;;;1.40;99.90;;;;;;4933302;29;19922;-89
2024/01/07 11:05:08;;;;;;;;;;;1.40;99.90;;;;;;4918539;29;20762;-88
2024/01/07 11:08:00;;;;;;;;;;;1.40;99.90;;;;;;4935033;29;19918;-88
2024/01/07 11:10:31;;;;;;;;;;;1.30;99.90;;;;;;4925837;29;19971;-89
2024/01/07 11:12:58;;;;;;;;;;;1.20;99.90;;;;;;4919951;29;19922;-90
2024/01/07 11:15:42;;;;;;;;;;;1.20;99.90;;;;;;4923882;29;19915;-88
2024/01/07 11:18:08;;;;;;;;;;;1.20;99.90;;;;;;4908668;29;19938;-88
2024/01/07 11:20:34;;;;;;;;;;;1.20;99.90;;;;;;4918500;29;19914;-89
2024/01/07 11:23:19;;;;;;;;;;;1.20;99.90;;;;;;4929754;29;19918;-89
2024/01/07 11:25:44;;;;;;;;;;;1.20;99.90;;;;;;4919488;29;19922;-88
2024/01/07 11:28:12;;;;;;;;;;;1.10;99.90;;;;;;4911508;29;20430;-88
2024/01/07 11:30:41;;;;;;;;;;;1.10;99.90;;;;;;4926553;29;19926;-88
2024/01/07 11:33:12;;;;;;;;;;;1.10;99.90;;;;;;4940092;29;19950;-88
2024/01/07 11:35:57;;;;;;;;;;;1.10;99.90;;;;;;4910717;29;20335;-88
2024/01/07 11:38:25;;;;;;;;;;;1.10;99.90;;;;;;4960203;29;19918;-88
2024/01/07 11:40:52;;;;;;;;;;;1.00;99.90;;;;;;4915064;29;19911;-88
2024/01/07 11:46:47;;;;;;;;;;;1.20;99.90;;;;;;4942325;29;19926;-88
2024/01/07 11:49:12;;;;;;;;;;;1.20;99.90;;;;;;4952623;29;19902;-88
2024/01/07 11:51:38;;;;;;;;;;;1.30;99.90;;;;;;4943385;29;20673;-88
2024/01/07 11:54:04;;;;;;;;;;;1.10;99.90;;;;;;4940595;29;19914;-89
2024/01/07 11:56:31;;;;;;;;;;;1.10;99.90;;;;;;4937440;29;19910;-88
2024/01/07 11:58:57;;;;;;;;;;;1.10;99.90;;;;;;4935694;29;19907;-89
2024/01/07 12:01:25;;;;;;;;;;;1.20;99.90;;;;;;4924814;29;19911;-89
2024/01/07 12:03:58;;;;;;;;;;;1.10;99.90;;;;;;4940080;29;19918;-90
2024/01/07 12:06:26;;;;;;;;;;;1.10;99.90;;;;;;4939143;29;19919;-89
2024/01/07 12:08:52;;;;;;;;;;;1.20;99.90;;;;;;4943335;29;19918;-89
2024/01/07 12:11:18;;;;;;;;;;;1.20;99.90;;;;;;4922952;29;20523;-89
2024/01/07 12:13:44;;;;;;;;;;;1.30;99.90;;;;;;4924923;29;20393;-89
2024/01/07 12:16:10;;;;;;;;;;;1.20;99.90;;;;;;4910587;29;19911;-88
2024/01/07 12:18:36;;;;;;;;;;;1.10;99.90;;;;;;4923146;29;19922;-88
2024/01/07 12:21:02;;;;;;;;;;;1.00;99.90;;;;;;4922219;29;19915;-88
2024/01/07 12:23:28;;;;;;;;;;;0.90;99.90;;;;;;4929547;29;19914;-88
2024/01/07 12:25:54;;;;;;;;;;;0.80;99.90;;;;;;4939850;29;19915;-88
2024/01/07 12:28:21;;;;;;;;;;;0.80;99.90;;;;;;4928208;29;19914;-88
2024/01/07 12:30:48;;;;;;;;;;;0.80;99.90;;;;;;4916522;29;19973;-89
2024/01/07 12:33:20;;;;;;;;;;;0.90;99.90;;;;;;4921697;29;19962;-89
2024/01/07 12:35:47;;;;;;;;;;;1.00;99.90;;;;;;4914881;29;19926;-88
2024/01/07 12:38:12;;;;;;;;;;;1.00;99.90;;;;;;4919098;29;19919;-88
2024/01/07 12:40:39;;;;;;;;;;;1.00;99.90;;;;;;4943697;29;19998;-88
2024/01/07 12:43:06;;;;;;;;;;;1.00;99.90;;;;;;4934406;29;19936;-89
2024/01/07 12:45:32;;;;;;;;;;;0.90;99.90;;;;;;4944616;29;19939;-88
2024/01/07 12:48:01;;;;;;;;;;;0.60;99.90;;;;;;4941542;29;19925;-88
2024/01/07 12:50:31;;;;;;;;;;;0.70;99.90;;;;;;4930884;29;19922;-89
2024/01/07 12:52:57;;;;;;;;;;;0.70;99.90;;;;;;4917822;29;19920;-89
2024/01/07 12:55:23;;;;;;;;;;;0.80;99.90;;;;;;4944791;29;19937;-89
2024/01/07 12:57:49;;;;;;;;;;;0.80;99.90;;;;;;4918821;29;19923;-89
2024/01/07 13:00:18;;;;;;;;;;;0.90;99.90;;;;;;4934324;29;19926;-89
2024/01/07 13:03:04;;;;;;;;;;;0.90;99.90;;;;;;4938418;29;20276;-88
2024/01/07 13:05:30;;;;;;;;;;;0.90;99.90;;;;;;4942628;29;19915;-88
2024/01/07 13:07:56;;;;;;;;;;;0.80;99.90;;;;;;4940222;29;19902;-88
2024/01/07 13:10:21;;;;;;;;;;;0.70;99.90;;;;;;4929528;29;19922;-90
2024/01/07 13:12:47;;;;;;;;;;;0.70;99.90;;;;;;4934242;29;20362;-89
2024/01/07 13:15:13;;;;;;;;;;;0.70;99.90;;;;;;4908648;29;19930;-88
2024/01/07 13:17:57;;;;;;;;;;;0.50;99.90;;;;;;4930577;29;19938;-89
2024/01/07 13:20:22;;;;;;;;;;;0.50;99.90;;;;;;4912266;29;20021;-88
2024/01/07 13:22:48;;;;;;;;;;;0.50;99.90;;;;;;4947111;28;19990;-89
2024/01/07 13:25:14;;;;;;;;;;;0.60;99.90;;;;;;4932839;29;20010;-89
2024/01/07 13:27:40;;;;;;;;;;;0.70;99.90;;;;;;4932951;29;19927;-88
2024/01/07 13:30:06;;;;;;;;;;;0.70;99.90;;;;;;4921303;29;20363;-89
2024/01/07 13:32:36;;;;;;;;;;;0.50;99.90;;;;;;4919530;29;19927;-88
2024/01/07 13:35:10;;;;;;;;;;;0.40;99.90;;;;;;4923092;29;23743;-88
2024/01/07 13:37:36;;;;;;;;;;;0.30;99.90;;;;;;4928226;29;20314;-89
2024/01/07 13:40:03;;;;;;;;;;;0.30;99.90;;;;;;4918643;29;19965;-89
2024/01/07 13:42:29;;;;;;;;;;;0.30;99.90;;;;;;4925123;29;19922;-89
2024/01/07 13:44:55;;;;;;;;;;;0.40;99.90;;;;;;4919599;29;19971;-89
2024/01/07 13:47:21;;;;;;;;;;;0.50;99.90;;;;;;4908920;29;19966;-89
2024/01/07 13:49:49;;;;;;;;;;;0.40;99.90;;;;;;4929913;29;19966;-90
2024/01/07 13:52:16;;;;;;;;;;;0.40;99.90;;;;;;4958333;29;20002;-90
2024/01/07 13:54:42;;;;;;;;;;;0.40;99.90;;;;;;4910615;29;19919;-88
2024/01/07 13:57:07;;;;;;;;;;;0.40;99.90;;;;;;4918573;29;19927;-88
2024/01/07 13:59:33;;;;;;;;;;;0.20;99.90;;;;;;4906276;29;19935;-89
2024/01/07 14:01:59;;;;;;;;;;;0.20;99.90;;;;;;4933236;29;19925;-89
2024/01/07 14:04:25;;;;;;;;;;;0.20;99.90;;;;;;4909419;29;19979;-89
2024/01/07 14:06:57;;;;;;;;;;;0.10;99.90;;;;;;4904316;29;20048;-87
2024/01/07 14:09:23;;;;;;;;;;;0.10;99.90;;;;;;4918864;29;19997;-89
2024/01/07 14:11:48;;;;;;;;;;;0.10;99.90;;;;;;4922762;29;19925;-89
2024/01/07 14:14:15;;;;;;;;;;;0.00;99.90;;;;;;4916403;29;20292;-88
2024/01/07 14:16:41;;;;;;;;;;;0.00;99.90;;;;;;4939220;29;19940;-89
2024/01/07 14:19:09;;;;;;;;;;;0.00;99.90;;;;;;4936396;29;19923;-89
2024/01/07 14:21:35;;;;;;;;;;;-0.10;99.90;;;;;;4896326;29;19926;-89
2024/01/07 14:24:00;;;;;;;;;;;-0.10;99.90;;;;;;4905171;29;19970;-88
2024/01/07 14:26:26;;;;;;;;;;;-0.10;99.90;;;;;;4906585;29;19918;-88
2024/01/07 14:28:52;;;;;;;;;;;-0.20;99.90;;;;;;4927390;29;20004;-88
2024/01/07 14:31:21;;;;;;;;;;;-0.10;99.90;;;;;;4931856;29;19919;-88
2024/01/07 14:33:48;;;;;;;;;;;-0.20;99.90;;;;;;4927637;29;20288;-88
2024/01/07 14:36:17;;;;;;;;;;;-0.30;99.90;;;;;;4916869;29;20041;-88
2024/01/07 14:38:47;;;;;;;;;;;-0.40;99.90;;;;;;4918596;29;20001;-88